sensor_id;sensor_type;location;lat;lon;timestamp;pressure;altitude;pressure_sealevel;temperature
66403;BMP180;53212;52.112;5.144;2024-01-16T00:01:17;100815.60;;;-0.10
66403;BMP180;53212;52.112;5.144;2024-01-16T00:03:43;100818.40;;;-0.08
66403;BMP180;53212;52.112;5.144;2024-01-16T00:06:10;100824.20;;;0.00
66403;BMP180;53212;52.112;5.144;2024-01-16T00:08:35;100819.40;;;0.04
66403;BMP180;53212;52.112;5.144;2024-01-16T00:11:02;100814.20;;;0.08
66403;BMP180;53212;52.112;5.144;2024-01-16T00:13:29;100819.20;;;0.10
66403;BMP180;53212;52.112;5.144;2024-01-16T00:15:54;100818.00;;;0.10
66403;BMP180;53212;52.112;5.144;2024-01-16T00:18:22;100821.20;;;0.12
66403;BMP180;53212;52.112;5.144;2024-01-16T00:20:47;100821.80;;;0.18
66403;BMP180;53212;52.112;5.144;2024-01-16T00:23:13;100826.20;;;0.20
66403;BMP180;53212;52.112;5.144;2024-01-16T00:25:38;100822.00;;;0.20
66403;BMP180;53212;52.112;5.144;2024-01-16T00:28:04;100821.00;;;0.20
66403;BMP180;53212;52.112;5.144;2024-01-16T00:30:29;100823.80;;;0.20
66403;BMP180;53212;52.112;5.144;2024-01-16T00:32:55;100824.60;;;0.28
66403;BMP180;53212;52.112;5.144;2024-01-16T00:35:21;100828.60;;;0.30
66403;BMP180;53212;52.112;5.144;2024-01-16T00:37:46;100824.60;;;0.20
66403;BMP180;53212;52.112;5.144;2024-01-16T00:40:12;100827.20;;;0.24
66403;BMP180;53212;52.112;5.144;2024-01-16T00:42:37;100839.40;;;0.30
66403;BMP180;53212;52.112;5.144;2024-01-16T00:45:04;100836.20;;;0.30
66403;BMP180;53212;52.112;5.144;2024-01-16T00:47:29;100837.00;;;0.34
66403;BMP180;53212;52.112;5.144;2024-01-16T00:49:55;100835.20;;;0.40
66403;BMP180;53212;52.112;5.144;2024-01-16T00:52:20;100833.80;;;0.40
66403;BMP180;53212;52.112;5.144;2024-01-16T00:54:46;100841.00;;;0.34
66403;BMP180;53212;52.112;5.144;2024-01-16T00:57:11;100846.00;;;0.30
66403;BMP180;53212;52.112;5.144;2024-01-16T00:59:37;100850.00;;;0.40
66403;BMP180;53212;52.112;5.144;2024-01-16T01:02:03;100847.20;;;0.50
66403;BMP180;53212;52.112;5.144;2024-01-16T01:04:29;100849.80;;;0.50
66403;BMP180;53212;52.112;5.144;2024-01-16T01:06:55;100852.00;;;0.50
66403;BMP180;53212;52.112;5.144;2024-01-16T01:09:20;100852.20;;;0.52
66403;BMP180;53212;52.112;5.144;2024-01-16T01:11:46;100845.00;;;0.60
66403;BMP180;53212;52.112;5.144;2024-01-16T01:14:11;100848.20;;;0.58
66403;BMP180;53212;52.112;5.144;2024-01-16T01:16:37;100847.40;;;0.50
66403;BMP180;53212;52.112;5.144;2024-01-16T01:19:02;100846.60;;;0.50
66403;BMP180;53212;52.112;5.144;2024-01-16T01:21:29;100842.00;;;0.40
66403;BMP180;53212;52.112;5.144;2024-01-16T01:23:54;100843.60;;;0.32
66403;BMP180;53212;52.112;5.144;2024-01-16T01:26:20;100846.20;;;0.30
66403;BMP180;53212;52.112;5.144;2024-01-16T01:28:46;100842.00;;;0.30
66403;BMP180;53212;52.112;5.144;2024-01-16T01:31:12;100856.40;;;0.30
66403;BMP180;53212;52.112;5.144;2024-01-16T01:33:38;100870.00;;;0.30
66403;BMP180;53212;52.112;5.144;2024-01-16T01:36:04;100859.40;;;0.30
66403;BMP180;53212;52.112;5.144;2024-01-16T01:38:30;100864.40;;;0.30
66403;BMP180;53212;52.112;5.144;2024-01-16T01:40:56;100864.40;;;0.40
66403;BMP180;53212;52.112;5.144;2024-01-16T01:43:25;100862.80;;;0.40
66403;BMP180;53212;52.112;5.144;2024-01-16T01:46:18;100872.80;;;0.40
66403;BMP180;53212;52.112;5.144;2024-01-16T01:48:47;100877.40;;;0.40
66403;BMP180;53212;52.112;5.144;2024-01-16T01:51:17;100874.60;;;0.40
66403;BMP180;53212;52.112;5.144;2024-01-16T01:53:44;100874.60;;;0.40
66403;BMP180;53212;52.112;5.144;2024-01-16T01:56:14;100883.80;;;0.40
66403;BMP180;53212;52.112;5.144;2024-01-16T01:58:43;100887.60;;;0.40
66403;BMP180;53212;52.112;5.144;2024-01-16T02:01:10;100881.00;;;0.40
66403;BMP180;53212;52.112;5.144;2024-01-16T02:03:45;100876.60;;;0.40
66403;BMP180;53212;52.112;5.144;2024-01-16T02:06:14;100873.40;;;0.40
66403;BMP180;53212;52.112;5.144;2024-01-16T02:08:42;100868.00;;;0.40
66403;BMP180;53212;52.112;5.144;2024-01-16T02:11:08;100872.80;;;0.40
66403;BMP180;53212;52.112;5.144;2024-01-16T02:13:35;100875.00;;;0.40
66403;BMP180;53212;52.112;5.144;2024-01-16T02:16:01;100862.20;;;0.40
66403;BMP180;53212;52.112;5.144;2024-01-16T02:18:26;100862.80;;;0.40
66403;BMP180;53212;52.112;5.144;2024-01-16T02:20:52;100860.60;;;0.40
66403;BMP180;53212;52.112;5.144;2024-01-16T02:23:26;100855.80;;;0.40
66403;BMP180;53212;52.112;5.144;2024-01-16T02:25:52;100850.80;;;0.40
66403;BMP180;53212;52.112;5.144;2024-01-16T02:28:18;100845.00;;;0.40
66403;BMP180;53212;52.112;5.144;2024-01-16T02:30:43;100844.40;;;0.40
66403;BMP180;53212;52.112;5.144;2024-01-16T02:33:09;100839.40;;;0.40
66403;BMP180;53212;52.112;5.144;2024-01-16T02:35:34;100846.60;;;0.40
66403;BMP180;53212;52.112;5.144;2024-01-16T02:37:59;100848.80;;;0.36
66403;BMP180;53212;52.112;5.144;2024-01-16T02:40:26;100855.20;;;0.30
66403;BMP180;53212;52.112;5.144;2024-01-16T02:42:52;100850.00;;;0.30
66403;BMP180;53212;52.112;5.144;2024-01-16T02:45:17;100850.40;;;0.30
66403;BMP180;53212;52.112;5.144;2024-01-16T02:47:43;100857.80;;;0.30
66403;BMP180;53212;52.112;5.144;2024-01-16T02:50:08;100853.60;;;0.40
66403;BMP180;53212;52.112;5.144;2024-01-16T02:52:36;100852.20;;;0.40
66403;BMP180;53212;52.112;5.144;2024-01-16T02:55:02;100848.20;;;0.50
66403;BMP180;53212;52.112;5.144;2024-01-16T02:57:28;100850.20;;;0.50
66403;BMP180;53212;52.112;5.144;2024-01-16T02:59:53;100853.00;;;0.50
66403;BMP180;53212;52.112;5.144;2024-01-16T03:02:19;100850.00;;;0.60
66403;BMP180;53212;52.112;5.144;2024-01-16T03:04:44;100853.00;;;0.60
66403;BMP180;53212;52.112;5.144;2024-01-16T03:07:10;100850.40;;;0.60
66403;BMP180;53212;52.112;5.144;2024-01-16T03:09:35;100856.80;;;0.66
66403;BMP180;53212;52.112;5.144;2024-01-16T03:12:02;100855.80;;;0.60
66403;BMP180;53212;52.112;5.144;2024-01-16T03:14:27;100860.60;;;0.60
66403;BMP180;53212;52.112;5.144;2024-01-16T03:16:53;100862.20;;;0.60
66403;BMP180;53212;52.112;5.144;2024-01-16T03:19:18;100872.00;;;0.50
66403;BMP180;53212;52.112;5.144;2024-01-16T03:21:44;100868.60;;;0.50
66403;BMP180;53212;52.112;5.144;2024-01-16T03:24:09;100872.00;;;0.40
66403;BMP180;53212;52.112;5.144;2024-01-16T03:26:36;100871.00;;;0.40
66403;BMP180;53212;52.112;5.144;2024-01-16T03:29:03;100871.00;;;0.40
66403;BMP180;53212;52.112;5.144;2024-01-16T03:31:29;100868.00;;;0.40
66403;BMP180;53212;52.112;5.144;2024-01-16T03:33:55;100864.20;;;0.48
66403;BMP180;53212;52.112;5.144;2024-01-16T03:36:20;100869.40;;;0.50
66403;BMP180;53212;52.112;5.144;2024-01-16T03:38:46;100865.20;;;0.40
66403;BMP180;53212;52.112;5.144;2024-01-16T03:41:11;100864.00;;;0.40
66403;BMP180;53212;52.112;5.144;2024-01-16T03:43:37;100865.20;;;0.40
66403;BMP180;53212;52.112;5.144;2024-01-16T03:46:03;100860.20;;;0.40
66403;BMP180;53212;52.112;5.144;2024-01-16T03:48:28;100859.60;;;0.40
66403;BMP180;53212;52.112;5.144;2024-01-16T03:50:55;100856.60;;;0.40
66403;BMP180;53212;52.112;5.144;2024-01-16T03:53:22;100852.80;;;0.40
66403;BMP180;53212;52.112;5.144;2024-01-16T03:55:48;100855.20;;;0.40
66403;BMP180;53212;52.112;5.144;2024-01-16T03:58:15;100852.80;;;0.40
66403;BMP180;53212;52.112;5.144;2024-01-16T04:00:41;100848.00;;;0.40
66403;BMP180;53212;52.112;5.144;2024-01-16T04:03:06;100843.80;;;0.46
66403;BMP180;53212;52.112;5.144;2024-01-16T04:05:33;100835.40;;;0.50
66403;BMP180;53212;52.112;5.144;2024-01-16T04:07:58;100844.00;;;0.50
66403;BMP180;53212;52.112;5.144;2024-01-16T04:10:24;100844.40;;;0.52
66403;BMP180;53212;52.112;5.144;2024-01-16T04:12:49;100838.20;;;0.60
66403;BMP180;53212;52.112;5.144;2024-01-16T04:15:15;100842.20;;;0.60
66403;BMP180;53212;52.112;5.144;2024-01-16T04:17:40;100839.40;;;0.60
66403;BMP180;53212;52.112;5.144;2024-01-16T04:20:06;100841.60;;;0.50
66403;BMP180;53212;52.112;5.144;2024-01-16T04:22:32;100845.80;;;0.50
66403;BMP180;53212;52.112;5.144;2024-01-16T04:24:58;100845.80;;;0.50
66403;BMP180;53212;52.112;5.144;2024-01-16T04:27:24;100844.20;;;0.50
66403;BMP180;53212;52.112;5.144;2024-01-16T04:29:51;100839.60;;;0.50
66403;BMP180;53212;52.112;5.144;2024-01-16T04:32:16;100839.20;;;0.50
66403;BMP180;53212;52.112;5.144;2024-01-16T04:34:42;100838.20;;;0.40
66403;BMP180;53212;52.112;5.144;2024-01-16T04:37:07;100831.40;;;0.40
66403;BMP180;53212;52.112;5.144;2024-01-16T04:39:33;100834.40;;;0.40
66403;BMP180;53212;52.112;5.144;2024-01-16T04:41:58;100834.40;;;0.40
66403;BMP180;53212;52.112;5.144;2024-01-16T04:44:24;100832.20;;;0.40
66403;BMP180;53212;52.112;5.144;2024-01-16T04:46:49;100835.20;;;0.40
66403;BMP180;53212;52.112;5.144;2024-01-16T04:49:15;100837.80;;;0.40
66403;BMP180;53212;52.112;5.144;2024-01-16T04:51:40;100830.20;;;0.40
66403;BMP180;53212;52.112;5.144;2024-01-16T04:54:05;100830.80;;;0.40
66403;BMP180;53212;52.112;5.144;2024-01-16T04:56:31;100825.00;;;0.40
66403;BMP180;53212;52.112;5.144;2024-01-16T04:58:57;100825.80;;;0.50
66403;BMP180;53212;52.112;5.144;2024-01-16T05:01:22;100827.60;;;0.44
66403;BMP180;53212;52.112;5.144;2024-01-16T05:03:47;100825.20;;;0.50
66403;BMP180;53212;52.112;5.144;2024-01-16T05:06:14;100825.00;;;0.50
66403;BMP180;53212;52.112;5.144;2024-01-16T05:08:41;100819.20;;;0.50
66403;BMP180;53212;52.112;5.144;2024-01-16T05:11:07;100821.00;;;0.50
66403;BMP180;53212;52.112;5.144;2024-01-16T05:13:32;100814.80;;;0.50
66403;BMP180;53212;52.112;5.144;2024-01-16T05:15:58;100810.40;;;0.50
66403;BMP180;53212;52.112;5.144;2024-01-16T05:18:23;100806.20;;;0.50
66403;BMP180;53212;52.112;5.144;2024-01-16T05:20:49;100805.80;;;0.58
66403;BMP180;53212;52.112;5.144;2024-01-16T05:23:14;100801.80;;;0.60
66403;BMP180;53212;52.112;5.144;2024-01-16T05:25:39;100800.00;;;0.60
66403;BMP180;53212;52.112;5.144;2024-01-16T05:28:05;100800.40;;;0.60
66403;BMP180;53212;52.112;5.144;2024-01-16T05:30:30;100794.80;;;0.60
66403;BMP180;53212;52.112;5.144;2024-01-16T05:32:56;100792.20;;;0.66
66403;BMP180;53212;52.112;5.144;2024-01-16T05:35:29;100797.40;;;0.70
66403;BMP180;53212;52.112;5.144;2024-01-16T05:37:55;100789.20;;;0.70
66403;BMP180;53212;52.112;5.144;2024-01-16T05:40:21;100797.60;;;0.70
66403;BMP180;53212;52.112;5.144;2024-01-16T05:42:50;100794.80;;;0.60
66403;BMP180;53212;52.112;5.144;2024-01-16T05:45:16;100791.20;;;0.60
66403;BMP180;53212;52.112;5.144;2024-01-16T05:47:41;100793.20;;;0.60
66403;BMP180;53212;52.112;5.144;2024-01-16T05:50:07;100796.60;;;0.60
66403;BMP180;53212;52.112;5.144;2024-01-16T05:52:33;100797.60;;;0.60
66403;BMP180;53212;52.112;5.144;2024-01-16T05:54:58;100797.80;;;0.60
66403;BMP180;53212;52.112;5.144;2024-01-16T05:57:26;100796.60;;;0.60
66403;BMP180;53212;52.112;5.144;2024-01-16T05:59:51;100785.20;;;0.56
66403;BMP180;53212;52.112;5.144;2024-01-16T06:02:17;100775.80;;;0.52
66403;BMP180;53212;52.112;5.144;2024-01-16T06:04:42;100762.80;;;0.50
66403;BMP180;53212;52.112;5.144;2024-01-16T06:07:08;100758.80;;;0.50
66403;BMP180;53212;52.112;5.144;2024-01-16T06:09:38;100770.20;;;0.58
66403;BMP180;53212;52.112;5.144;2024-01-16T06:12:05;100787.00;;;0.50
66403;BMP180;53212;52.112;5.144;2024-01-16T06:14:32;100792.00;;;0.50
66403;BMP180;53212;52.112;5.144;2024-01-16T06:16:58;100798.00;;;0.50
66403;BMP180;53212;52.112;5.144;2024-01-16T06:19:23;100795.20;;;0.50
66403;BMP180;53212;52.112;5.144;2024-01-16T06:21:49;100795.20;;;0.50
66403;BMP180;53212;52.112;5.144;2024-01-16T06:24:14;100792.00;;;0.52
66403;BMP180;53212;52.112;5.144;2024-01-16T06:26:40;100797.00;;;0.50
66403;BMP180;53212;52.112;5.144;2024-01-16T06:29:05;100792.80;;;0.50
66403;BMP180;53212;52.112;5.144;2024-01-16T06:31:31;100788.80;;;0.60
66403;BMP180;53212;52.112;5.144;2024-01-16T06:33:56;100780.20;;;0.62
66403;BMP180;53212;52.112;5.144;2024-01-16T06:36:22;100782.60;;;0.70
66403;BMP180;53212;52.112;5.144;2024-01-16T06:38:47;100791.00;;;0.70
66403;BMP180;53212;52.112;5.144;2024-01-16T06:41:13;100796.60;;;0.70
66403;BMP180;53212;52.112;5.144;2024-01-16T06:43:38;100798.40;;;0.70
66403;BMP180;53212;52.112;5.144;2024-01-16T06:46:04;100794.20;;;0.70
66403;BMP180;53212;52.112;5.144;2024-01-16T06:48:30;100791.40;;;0.70
66403;BMP180;53212;52.112;5.144;2024-01-16T06:50:56;100791.20;;;0.70
66403;BMP180;53212;52.112;5.144;2024-01-16T06:53:21;100789.00;;;0.70
66403;BMP180;53212;52.112;5.144;2024-01-16T06:55:48;100790.00;;;0.72
66403;BMP180;53212;52.112;5.144;2024-01-16T06:58:14;100793.00;;;0.80
66403;BMP180;53212;52.112;5.144;2024-01-16T07:00:40;100782.60;;;0.80
66403;BMP180;53212;52.112;5.144;2024-01-16T07:03:07;100786.80;;;0.90
66403;BMP180;53212;52.112;5.144;2024-01-16T07:05:32;100789.20;;;0.90
66403;BMP180;53212;52.112;5.144;2024-01-16T07:07:58;100786.00;;;0.90
66403;BMP180;53212;52.112;5.144;2024-01-16T07:10:24;100788.60;;;0.90
66403;BMP180;53212;52.112;5.144;2024-01-16T07:12:50;100788.40;;;0.98
66403;BMP180;53212;52.112;5.144;2024-01-16T07:15:17;100787.00;;;1.00
66403;BMP180;53212;52.112;5.144;2024-01-16T07:17:43;100789.00;;;1.00
66403;BMP180;53212;52.112;5.144;2024-01-16T07:20:09;100787.80;;;0.92
66403;BMP180;53212;52.112;5.144;2024-01-16T07:22:37;100789.80;;;0.90
66403;BMP180;53212;52.112;5.144;2024-01-16T07:25:06;100793.20;;;0.80
66403;BMP180;53212;52.112;5.144;2024-01-16T07:27:32;100794.00;;;0.80
66403;BMP180;53212;52.112;5.144;2024-01-16T07:29:57;100793.80;;;0.70
66403;BMP180;53212;52.112;5.144;2024-01-16T07:32:23;100797.20;;;0.70
66403;BMP180;53212;52.112;5.144;2024-01-16T07:34:48;100799.00;;;0.70
66403;BMP180;53212;52.112;5.144;2024-01-16T07:37:13;100796.40;;;0.70
66403;BMP180;53212;52.112;5.144;2024-01-16T07:39:41;100800.40;;;0.76
66403;BMP180;53212;52.112;5.144;2024-01-16T07:42:07;100805.40;;;0.74
66403;BMP180;53212;52.112;5.144;2024-01-16T07:44:33;100804.80;;;0.72
66403;BMP180;53212;52.112;5.144;2024-01-16T07:46:58;100809.40;;;0.78
66403;BMP180;53212;52.112;5.144;2024-01-16T07:49:24;100807.20;;;0.74
66403;BMP180;53212;52.112;5.144;2024-01-16T07:51:49;100800.00;;;0.78
66403;BMP180;53212;52.112;5.144;2024-01-16T07:54:15;100804.20;;;0.80
66403;BMP180;53212;52.112;5.144;2024-01-16T07:56:40;100809.00;;;0.80
66403;BMP180;53212;52.112;5.144;2024-01-16T07:59:05;100809.60;;;0.80
66403;BMP180;53212;52.112;5.144;2024-01-16T08:01:32;100807.60;;;0.80
66403;BMP180;53212;52.112;5.144;2024-01-16T08:03:57;100801.40;;;0.80
66403;BMP180;53212;52.112;5.144;2024-01-16T08:06:23;100808.60;;;0.74
66403;BMP180;53212;52.112;5.144;2024-01-16T08:08:50;100804.00;;;0.70
66403;BMP180;53212;52.112;5.144;2024-01-16T08:11:16;100801.60;;;0.70
66403;BMP180;53212;52.112;5.144;2024-01-16T08:13:41;100804.60;;;0.70
66403;BMP180;53212;52.112;5.144;2024-01-16T08:16:07;100801.60;;;0.70
66403;BMP180;53212;52.112;5.144;2024-01-16T08:18:34;100795.80;;;0.70
66403;BMP180;53212;52.112;5.144;2024-01-16T08:20:59;100794.80;;;0.70
66403;BMP180;53212;52.112;5.144;2024-01-16T08:23:25;100796.80;;;0.70
66403;BMP180;53212;52.112;5.144;2024-01-16T08:25:50;100801.60;;;0.70
66403;BMP180;53212;52.112;5.144;2024-01-16T08:28:19;100799.20;;;0.70
66403;BMP180;53212;52.112;5.144;2024-01-16T08:30:45;100799.40;;;0.70
66403;BMP180;53212;52.112;5.144;2024-01-16T08:33:12;100795.40;;;0.64
66403;BMP180;53212;52.112;5.144;2024-01-16T08:35:38;100794.20;;;0.60
66403;BMP180;53212;52.112;5.144;2024-01-16T08:38:04;100799.20;;;0.60
66403;BMP180;53212;52.112;5.144;2024-01-16T08:40:30;100794.20;;;0.60
66403;BMP180;53212;52.112;5.144;2024-01-16T08:42:56;100798.80;;;0.60
66403;BMP180;53212;52.112;5.144;2024-01-16T08:45:22;100799.80;;;0.70
66403;BMP180;53212;52.112;5.144;2024-01-16T08:47:48;100800.00;;;0.70
66403;BMP180;53212;52.112;5.144;2024-01-16T08:50:15;100798.20;;;0.70
66403;BMP180;53212;52.112;5.144;2024-01-16T08:52:40;100799.20;;;0.80
66403;BMP180;53212;52.112;5.144;2024-01-16T08:55:06;100798.00;;;0.80
66403;BMP180;53212;52.112;5.144;2024-01-16T08:57:32;100799.80;;;0.90
66403;BMP180;53212;52.112;5.144;2024-01-16T08:59:57;100799.00;;;1.00
66403;BMP180;53212;52.112;5.144;2024-01-16T09:02:23;100793.60;;;1.10
66403;BMP180;53212;52.112;5.144;2024-01-16T09:04:49;100790.60;;;1.20
66403;BMP180;53212;52.112;5.144;2024-01-16T09:07:16;100796.40;;;1.30
66403;BMP180;53212;52.112;5.144;2024-01-16T09:09:42;100795.20;;;1.30
66403;BMP180;53212;52.112;5.144;2024-01-16T09:12:11;100793.60;;;1.30
66403;BMP180;53212;52.112;5.144;2024-01-16T09:14:37;100798.80;;;1.38
66403;BMP180;53212;52.112;5.144;2024-01-16T09:17:03;100799.20;;;1.40
66403;BMP180;53212;52.112;5.144;2024-01-16T09:19:29;100790.20;;;1.40
66403;BMP180;53212;52.112;5.144;2024-01-16T09:21:55;100792.60;;;1.40
66403;BMP180;53212;52.112;5.144;2024-01-16T09:24:21;100797.20;;;1.50
66403;BMP180;53212;52.112;5.144;2024-01-16T09:26:47;100795.20;;;1.40
66403;BMP180;53212;52.112;5.144;2024-01-16T09:29:12;100795.80;;;1.40
66403;BMP180;53212;52.112;5.144;2024-01-16T09:31:40;100796.40;;;1.40
66403;BMP180;53212;52.112;5.144;2024-01-16T09:34:06;100801.40;;;1.38
66403;BMP180;53212;52.112;5.144;2024-01-16T09:36:31;100801.00;;;1.40
66403;BMP180;53212;52.112;5.144;2024-01-16T09:38:57;100800.60;;;1.40
66403;BMP180;53212;52.112;5.144;2024-01-16T09:41:23;100791.60;;;1.40
66403;BMP180;53212;52.112;5.144;2024-01-16T09:43:49;100794.60;;;1.40
66403;BMP180;53212;52.112;5.144;2024-01-16T09:46:17;100795.60;;;1.50
66403;BMP180;53212;52.112;5.144;2024-01-16T09:48:44;100794.00;;;1.50
66403;BMP180;53212;52.112;5.144;2024-01-16T09:51:13;100795.60;;;1.50
66403;BMP180;53212;52.112;5.144;2024-01-16T09:53:42;100791.00;;;1.50
66403;BMP180;53212;52.112;5.144;2024-01-16T09:56:14;100787.80;;;1.50
66403;BMP180;53212;52.112;5.144;2024-01-16T09:58:40;100794.80;;;1.50
66403;BMP180;53212;52.112;5.144;2024-01-16T10:01:06;100786.80;;;1.50
66403;BMP180;53212;52.112;5.144;2024-01-16T10:03:34;100784.20;;;1.50
66403;BMP180;53212;52.112;5.144;2024-01-16T10:06:07;100793.00;;;1.46
66403;BMP180;53212;52.112;5.144;2024-01-16T10:08:33;100781.20;;;1.42
66403;BMP180;53212;52.112;5.144;2024-01-16T10:10:59;100776.20;;;1.40
66403;BMP180;53212;52.112;5.144;2024-01-16T10:13:26;100774.80;;;1.40
66403;BMP180;53212;52.112;5.144;2024-01-16T10:15:52;100768.80;;;1.40
66403;BMP180;53212;52.112;5.144;2024-01-16T10:18:28;100773.80;;;1.50
66403;BMP180;53212;52.112;5.144;2024-01-16T10:20:55;100773.40;;;1.54
66403;BMP180;53212;52.112;5.144;2024-01-16T10:23:25;100764.00;;;1.70
66403;BMP180;53212;52.112;5.144;2024-01-16T10:26:08;100761.20;;;1.84
66403;BMP180;53212;52.112;5.144;2024-01-16T10:28:40;100759.00;;;2.02
66403;BMP180;53212;52.112;5.144;2024-01-16T10:31:08;100760.40;;;2.20
66403;BMP180;53212;52.112;5.144;2024-01-16T10:33:34;100757.40;;;2.30
66403;BMP180;53212;52.112;5.144;2024-01-16T10:36:14;100754.40;;;2.50
66403;BMP180;53212;52.112;5.144;2024-01-16T10:38:43;100760.80;;;2.60
66403;BMP180;53212;52.112;5.144;2024-01-16T10:43:36;100760.00;;;2.70
66403;BMP180;53212;52.112;5.144;2024-01-16T10:48:39;100760.80;;;2.82
66403;BMP180;53212;52.112;5.144;2024-01-16T10:51:19;100762.40;;;2.90
66403;BMP180;53212;52.112;5.144;2024-01-16T10:53:45;100757.80;;;2.90
66403;BMP180;53212;52.112;5.144;2024-01-16T10:56:12;100749.20;;;2.80
66403;BMP180;53212;52.112;5.144;2024-01-16T10:58:43;100751.40;;;2.80
66403;BMP180;53212;52.112;5.144;2024-01-16T11:01:15;100751.80;;;2.70
66403;BMP180;53212;52.112;5.144;2024-01-16T11:03:48;100752.00;;;2.60
66403;BMP180;53212;52.112;5.144;2024-01-16T11:06:18;100757.00;;;2.60
66403;BMP180;53212;52.112;5.144;2024-01-16T11:08:48;100751.00;;;2.56
66403;BMP180;53212;52.112;5.144;2024-01-16T11:11:15;100743.40;;;2.50
66403;BMP180;53212;52.112;5.144;2024-01-16T11:13:41;100739.80;;;2.60
66403;BMP180;53212;52.112;5.144;2024-01-16T11:16:11;100732.20;;;2.50
66403;BMP180;53212;52.112;5.144;2024-01-16T11:18:37;100733.00;;;2.50
66403;BMP180;53212;52.112;5.144;2024-01-16T11:21:07;100726.40;;;2.40
66403;BMP180;53212;52.112;5.144;2024-01-16T11:23:33;100719.20;;;2.40
66403;BMP180;53212;52.112;5.144;2024-01-16T11:26:17;100724.80;;;2.46
66403;BMP180;53212;52.112;5.144;2024-01-16T11:28:45;100717.60;;;2.50
66403;BMP180;53212;52.112;5.144;2024-01-16T11:31:34;100719.80;;;2.46
66403;BMP180;53212;52.112;5.144;2024-01-16T11:34:01;100719.20;;;2.50
66403;BMP180;53212;52.112;5.144;2024-01-16T11:36:51;100717.20;;;2.40
66403;BMP180;53212;52.112;5.144;2024-01-16T11:39:25;100715.80;;;2.50
66403;BMP180;53212;52.112;5.144;2024-01-16T11:41:56;100714.80;;;2.56
66403;BMP180;53212;52.112;5.144;2024-01-16T11:44:47;100715.00;;;2.70
66403;BMP180;53212;52.112;5.144;2024-01-16T11:47:23;100700.80;;;2.80
66403;BMP180;53212;52.112;5.144;2024-01-16T11:50:09;100699.40;;;2.86
66403;BMP180;53212;52.112;5.144;2024-01-16T11:52:44;100700.60;;;2.98
66403;BMP180;53212;52.112;5.144;2024-01-16T11:55:31;100699.80;;;3.00
66403;BMP180;53212;52.112;5.144;2024-01-16T11:58:25;100692.00;;;3.20
66403;BMP180;53212;52.112;5.144;2024-01-16T12:00:57;100698.80;;;3.40
66403;BMP180;53212;52.112;5.144;2024-01-16T12:03:23;100698.60;;;3.58
66403;BMP180;53212;52.112;5.144;2024-01-16T12:05:59;100696.40;;;3.60
66403;BMP180;53212;52.112;5.144;2024-01-16T12:08:26;100694.00;;;3.70
66403;BMP180;53212;52.112;5.144;2024-01-16T12:10:51;100695.60;;;3.80
66403;BMP180;53212;52.112;5.144;2024-01-16T12:13:18;100694.40;;;3.70
66403;BMP180;53212;52.112;5.144;2024-01-16T12:15:43;100693.60;;;3.76
66403;BMP180;53212;52.112;5.144;2024-01-16T12:18:09;100692.80;;;3.88
66403;BMP180;53212;52.112;5.144;2024-01-16T12:20:38;100688.20;;;3.90
66403;BMP180;53212;52.112;5.144;2024-01-16T12:23:06;100686.00;;;3.96
66403;BMP180;53212;52.112;5.144;2024-01-16T12:25:35;100689.80;;;3.90
66403;BMP180;53212;52.112;5.144;2024-01-16T12:28:06;100692.20;;;3.98
66403;BMP180;53212;52.112;5.144;2024-01-16T12:33:09;100690.60;;;4.04
66403;BMP180;53212;52.112;5.144;2024-01-16T12:35:40;100680.40;;;3.92
66403;BMP180;53212;52.112;5.144;2024-01-16T12:38:08;100676.00;;;3.80
66403;BMP180;53212;52.112;5.144;2024-01-16T12:40:36;100677.00;;;3.60
66403;BMP180;53212;52.112;5.144;2024-01-16T12:43:03;100679.40;;;3.40
66403;BMP180;53212;52.112;5.144;2024-01-16T12:45:29;100676.20;;;3.10
66403;BMP180;53212;52.112;5.144;2024-01-16T12:47:55;100672.80;;;3.10
66403;BMP180;53212;52.112;5.144;2024-01-16T12:50:26;100670.40;;;3.20
66403;BMP180;53212;52.112;5.144;2024-01-16T12:53:06;100668.20;;;3.20
66403;BMP180;53212;52.112;5.144;2024-01-16T12:55:40;100670.40;;;3.10
66403;BMP180;53212;52.112;5.144;2024-01-16T12:58:19;100667.80;;;3.00
66403;BMP180;53212;52.112;5.144;2024-01-16T13:00:48;100671.60;;;3.00
66403;BMP180;53212;52.112;5.144;2024-01-16T13:03:24;100661.40;;;3.00
66403;BMP180;53212;52.112;5.144;2024-01-16T13:05:58;100662.20;;;3.00
66403;BMP180;53212;52.112;5.144;2024-01-16T13:08:24;100656.80;;;3.20
66403;BMP180;53212;52.112;5.144;2024-01-16T13:11:09;100656.60;;;3.40
66403;BMP180;53212;52.112;5.144;2024-01-16T13:13:35;100653.60;;;3.50
66403;BMP180;53212;52.112;5.144;2024-01-16T13:16:03;100655.00;;;3.60
66403;BMP180;53212;52.112;5.144;2024-01-16T13:18:33;100654.20;;;3.70
66403;BMP180;53212;52.112;5.144;2024-01-16T13:21:00;100647.60;;;3.70
66403;BMP180;53212;52.112;5.144;2024-01-16T13:23:27;100645.20;;;3.70
66403;BMP180;53212;52.112;5.144;2024-01-16T13:25:54;100648.60;;;3.70
66403;BMP180;53212;52.112;5.144;2024-01-16T13:28:29;100648.20;;;3.70
66403;BMP180;53212;52.112;5.144;2024-01-16T13:30:55;100647.60;;;3.62
66403;BMP180;53212;52.112;5.144;2024-01-16T13:33:25;100651.80;;;3.56
66403;BMP180;53212;52.112;5.144;2024-01-16T13:35:54;100650.40;;;3.50
66403;BMP180;53212;52.112;5.144;2024-01-16T13:38:23;100652.40;;;3.30
66403;BMP180;53212;52.112;5.144;2024-01-16T13:40:49;100641.80;;;3.26
66403;BMP180;53212;52.112;5.144;2024-01-16T13:43:15;100632.00;;;3.30
66403;BMP180;53212;52.112;5.144;2024-01-16T13:45:41;100628.20;;;3.30
66403;BMP180;53212;52.112;5.144;2024-01-16T13:48:09;100623.40;;;3.28
66403;BMP180;53212;52.112;5.144;2024-01-16T13:50:34;100619.80;;;3.26
66403;BMP180;53212;52.112;5.144;2024-01-16T13:53:01;100620.00;;;3.30
66403;BMP180;53212;52.112;5.144;2024-01-16T13:55:27;100621.40;;;3.30
66403;BMP180;53212;52.112;5.144;2024-01-16T13:57:53;100625.60;;;3.30
66403;BMP180;53212;52.112;5.144;2024-01-16T14:00:19;100620.00;;;3.30
66403;BMP180;53212;52.112;5.144;2024-01-16T14:02:46;100614.80;;;3.20
66403;BMP180;53212;52.112;5.144;2024-01-16T14:05:14;100618.80;;;3.20
66403;BMP180;53212;52.112;5.144;2024-01-16T14:07:44;100619.20;;;3.20
66403;BMP180;53212;52.112;5.144;2024-01-16T14:10:17;100619.40;;;3.20
66403;BMP180;53212;52.112;5.144;2024-01-16T14:12:44;100618.60;;;3.16
66403;BMP180;53212;52.112;5.144;2024-01-16T14:15:21;100618.40;;;3.14
66403;BMP180;53212;52.112;5.144;2024-01-16T14:17:53;100611.80;;;3.20